sensor_id;sensor_type;location;lat;lon;timestamp;P1;durP1;ratioP1;P2;durP2;ratioP2
21697;SDS011;11010;49.548;11.926;2024-02-23T00:01:12;1.33;;;0.63;;
21697;SDS011;11010;49.548;11.926;2024-02-23T00:03:40;2.23;;;0.70;;
21697;SDS011;11010;49.548;11.926;2024-02-23T00:06:07;3.23;;;0.80;;
21697;SDS011;11010;49.548;11.926;2024-02-23T00:08:35;2.40;;;0.70;;
21697;SDS011;11010;49.548;11.926;2024-02-23T00:11:04;1.30;;;0.70;;
21697;SDS011;11010;49.548;11.926;2024-02-23T00:13:33;2.10;;;0.70;;
21697;SDS011;11010;49.548;11.926;2024-02-23T00:16:00;2.20;;;0.70;;
21697;SDS011;11010;49.548;11.926;2024-02-23T00:18:27;1.20;;;0.63;;
21697;SDS011;11010;49.548;11.926;2024-02-23T00:20:54;1.23;;;0.63;;
21697;SDS011;11010;49.548;11.926;2024-02-23T00:23:23;1.43;;;0.60;;
21697;SDS011;11010;49.548;11.926;2024-02-23T00:25:50;1.33;;;0.70;;
21697;SDS011;11010;49.548;11.926;2024-02-23T00:28:18;2.90;;;0.80;;
21697;SDS011;11010;49.548;11.926;2024-02-23T00:30:45;2.17;;;0.63;;
21697;SDS011;11010;49.548;11.926;2024-02-23T00:33:12;2.10;;;0.70;;
21697;SDS011;11010;49.548;11.926;2024-02-23T00:35:41;1.77;;;0.70;;
21697;SDS011;11010;49.548;11.926;2024-02-23T00:38:08;2.20;;;0.70;;
21697;SDS011;11010;49.548;11.926;2024-02-23T00:40:36;3.40;;;0.70;;
21697;SDS011;11010;49.548;11.926;2024-02-23T00:43:03;1.57;;;0.70;;
21697;SDS011;11010;49.548;11.926;2024-02-23T00:45:31;2.10;;;0.63;;
21697;SDS011;11010;49.548;11.926;2024-02-23T00:47:58;1.37;;;0.60;;
21697;SDS011;11010;49.548;11.926;2024-02-23T00:50:26;1.93;;;0.70;;
21697;SDS011;11010;49.548;11.926;2024-02-23T00:52:53;1.60;;;0.60;;
21697;SDS011;11010;49.548;11.926;2024-02-23T00:55:21;1.67;;;0.60;;
21697;SDS011;11010;49.548;11.926;2024-02-23T00:57:48;0.90;;;0.60;;
21697;SDS011;11010;49.548;11.926;2024-02-23T01:00:16;2.13;;;0.60;;
21697;SDS011;11010;49.548;11.926;2024-02-23T01:02:43;1.77;;;0.63;;
21697;SDS011;11010;49.548;11.926;2024-02-23T01:05:10;2.07;;;0.60;;
21697;SDS011;11010;49.548;11.926;2024-02-23T01:07:38;1.17;;;0.50;;
21697;SDS011;11010;49.548;11.926;2024-02-23T01:10:05;1.70;;;0.70;;
21697;SDS011;11010;49.548;11.926;2024-02-23T01:12:33;1.23;;;0.57;;
21697;SDS011;11010;49.548;11.926;2024-02-23T01:15:00;0.60;;;0.60;;
21697;SDS011;11010;49.548;11.926;2024-02-23T01:17:31;0.93;;;0.60;;
21697;SDS011;11010;49.548;11.926;2024-02-23T01:19:59;1.93;;;0.70;;
21697;SDS011;11010;49.548;11.926;2024-02-23T01:22:26;1.70;;;0.50;;
21697;SDS011;11010;49.548;11.926;2024-02-23T01:24:53;1.37;;;0.57;;
21697;SDS011;11010;49.548;11.926;2024-02-23T01:27:21;0.90;;;0.50;;
21697;SDS011;11010;49.548;11.926;2024-02-23T01:29:48;1.63;;;0.60;;
21697;SDS011;11010;49.548;11.926;2024-02-23T01:32:15;0.63;;;0.50;;
21697;SDS011;11010;49.548;11.926;2024-02-23T01:34:43;0.40;;;0.40;;
21697;SDS011;11010;49.548;11.926;2024-02-23T01:37:10;1.30;;;0.60;;
21697;SDS011;11010;49.548;11.926;2024-02-23T01:39:38;2.13;;;0.60;;
21697;SDS011;11010;49.548;11.926;2024-02-23T01:42:05;1.53;;;0.50;;
21697;SDS011;11010;49.548;11.926;2024-02-23T01:44:32;0.60;;;0.50;;
21697;SDS011;11010;49.548;11.926;2024-02-23T01:47:00;1.13;;;0.60;;
21697;SDS011;11010;49.548;11.926;2024-02-23T01:49:27;2.10;;;0.60;;
21697;SDS011;11010;49.548;11.926;2024-02-23T01:52:00;1.13;;;0.60;;
21697;SDS011;11010;49.548;11.926;2024-02-23T01:54:28;0.73;;;0.50;;
21697;SDS011;11010;49.548;11.926;2024-02-23T01:56:56;0.50;;;0.50;;
21697;SDS011;11010;49.548;11.926;2024-02-23T01:59:36;0.50;;;0.43;;
21697;SDS011;11010;49.548;11.926;2024-02-23T02:02:05;0.50;;;0.50;;
21697;SDS011;11010;49.548;11.926;2024-02-23T02:04:33;1.50;;;0.60;;
21697;SDS011;11010;49.548;11.926;2024-02-23T02:07:01;0.53;;;0.50;;
21697;SDS011;11010;49.548;11.926;2024-02-23T02:09:29;0.90;;;0.50;;
21697;SDS011;11010;49.548;11.926;2024-02-23T02:11:57;1.87;;;0.70;;
21697;SDS011;11010;49.548;11.926;2024-02-23T02:14:24;0.60;;;0.40;;
21697;SDS011;11010;49.548;11.926;2024-02-23T02:16:52;1.60;;;0.60;;
21697;SDS011;11010;49.548;11.926;2024-02-23T02:19:19;1.33;;;0.60;;
21697;SDS011;11010;49.548;11.926;2024-02-23T02:21:46;1.10;;;0.50;;
21697;SDS011;11010;49.548;11.926;2024-02-23T02:24:14;2.03;;;0.60;;
21697;SDS011;11010;49.548;11.926;2024-02-23T02:26:41;0.87;;;0.50;;
21697;SDS011;11010;49.548;11.926;2024-02-23T02:29:10;2.70;;;0.60;;
21697;SDS011;11010;49.548;11.926;2024-02-23T02:31:37;2.00;;;0.60;;
21697;SDS011;11010;49.548;11.926;2024-02-23T02:34:05;0.90;;;0.50;;
21697;SDS011;11010;49.548;11.926;2024-02-23T02:36:32;1.60;;;0.60;;
21697;SDS011;11010;49.548;11.926;2024-02-23T02:38:59;0.83;;;0.40;;
21697;SDS011;11010;49.548;11.926;2024-02-23T02:41:28;1.07;;;0.50;;
21697;SDS011;11010;49.548;11.926;2024-02-23T02:43:57;2.70;;;0.63;;
21697;SDS011;11010;49.548;11.926;2024-02-23T02:46:24;1.07;;;0.53;;
21697;SDS011;11010;49.548;11.926;2024-02-23T02:48:51;0.93;;;0.50;;
21697;SDS011;11010;49.548;11.926;2024-02-23T02:51:19;0.63;;;0.53;;
21697;SDS011;11010;49.548;11.926;2024-02-23T02:53:47;1.57;;;0.60;;
21697;SDS011;11010;49.548;11.926;2024-02-23T02:56:14;2.17;;;0.60;;
21697;SDS011;11010;49.548;11.926;2024-02-23T02:58:41;1.40;;;0.47;;
21697;SDS011;11010;49.548;11.926;2024-02-23T03:01:08;1.53;;;0.60;;
21697;SDS011;11010;49.548;11.926;2024-02-23T03:03:36;1.97;;;0.70;;
21697;SDS011;11010;49.548;11.926;2024-02-23T03:06:03;3.07;;;0.63;;
21697;SDS011;11010;49.548;11.926;2024-02-23T03:08:32;2.90;;;0.60;;
21697;SDS011;11010;49.548;11.926;2024-02-23T03:11:00;0.97;;;0.60;;
21697;SDS011;11010;49.548;11.926;2024-02-23T03:13:27;0.97;;;0.43;;
21697;SDS011;11010;49.548;11.926;2024-02-23T03:15:55;1.93;;;0.60;;
21697;SDS011;11010;49.548;11.926;2024-02-23T03:18:22;2.33;;;0.67;;
21697;SDS011;11010;49.548;11.926;2024-02-23T03:20:49;2.10;;;0.50;;
21697;SDS011;11010;49.548;11.926;2024-02-23T03:23:17;1.20;;;0.60;;
21697;SDS011;11010;49.548;11.926;2024-02-23T03:25:44;1.10;;;0.50;;
21697;SDS011;11010;49.548;11.926;2024-02-23T03:28:11;0.50;;;0.50;;
21697;SDS011;11010;49.548;11.926;2024-02-23T03:30:38;3.70;;;0.60;;
21697;SDS011;11010;49.548;11.926;2024-02-23T03:33:06;3.90;;;0.90;;
21697;SDS011;11010;49.548;11.926;2024-02-23T03:35:33;2.23;;;0.60;;
21697;SDS011;11010;49.548;11.926;2024-02-23T03:38:00;1.63;;;0.60;;
21697;SDS011;11010;49.548;11.926;2024-02-23T03:40:28;1.80;;;0.60;;
21697;SDS011;11010;49.548;11.926;2024-02-23T03:42:55;1.03;;;0.60;;
21697;SDS011;11010;49.548;11.926;2024-02-23T03:45:22;3.00;;;0.67;;
21697;SDS011;11010;49.548;11.926;2024-02-23T03:47:50;1.87;;;0.60;;
21697;SDS011;11010;49.548;11.926;2024-02-23T03:50:17;3.23;;;0.60;;
21697;SDS011;11010;49.548;11.926;2024-02-23T03:52:44;2.03;;;0.60;;
21697;SDS011;11010;49.548;11.926;2024-02-23T03:55:11;3.93;;;0.90;;
21697;SDS011;11010;49.548;11.926;2024-02-23T03:57:39;1.90;;;0.70;;
21697;SDS011;11010;49.548;11.926;2024-02-23T04:00:12;2.97;;;0.70;;
21697;SDS011;11010;49.548;11.926;2024-02-23T04:02:40;1.43;;;0.70;;
21697;SDS011;11010;49.548;11.926;2024-02-23T04:05:08;3.03;;;0.80;;
21697;SDS011;11010;49.548;11.926;2024-02-23T04:07:36;0.93;;;0.50;;
21697;SDS011;11010;49.548;11.926;2024-02-23T04:10:03;2.10;;;0.60;;
21697;SDS011;11010;49.548;11.926;2024-02-23T04:12:31;0.60;;;0.53;;
21697;SDS011;11010;49.548;11.926;2024-02-23T04:14:58;2.73;;;0.73;;
21697;SDS011;11010;49.548;11.926;2024-02-23T04:17:25;2.50;;;0.70;;
21697;SDS011;11010;49.548;11.926;2024-02-23T04:19:53;1.97;;;0.70;;
21697;SDS011;11010;49.548;11.926;2024-02-23T04:22:20;4.20;;;0.70;;
21697;SDS011;11010;49.548;11.926;2024-02-23T04:24:47;2.97;;;0.70;;
21697;SDS011;11010;49.548;11.926;2024-02-23T04:27:14;5.00;;;0.80;;
21697;SDS011;11010;49.548;11.926;2024-02-23T04:29:42;3.47;;;0.80;;
21697;SDS011;11010;49.548;11.926;2024-02-23T04:32:09;4.33;;;0.80;;
21697;SDS011;11010;49.548;11.926;2024-02-23T04:34:36;2.00;;;0.70;;
21697;SDS011;11010;49.548;11.926;2024-02-23T04:37:04;2.03;;;0.70;;
21697;SDS011;11010;49.548;11.926;2024-02-23T04:39:31;3.00;;;0.80;;
21697;SDS011;11010;49.548;11.926;2024-02-23T04:41:58;1.40;;;0.60;;
21697;SDS011;11010;49.548;11.926;2024-02-23T04:44:26;2.03;;;0.70;;
21697;SDS011;11010;49.548;11.926;2024-02-23T04:46:53;2.53;;;0.70;;
21697;SDS011;11010;49.548;11.926;2024-02-23T04:49:20;4.63;;;0.70;;
21697;SDS011;11010;49.548;11.926;2024-02-23T04:51:47;1.97;;;0.70;;
21697;SDS011;11010;49.548;11.926;2024-02-23T04:54:14;4.27;;;0.80;;
21697;SDS011;11010;49.548;11.926;2024-02-23T04:56:42;3.53;;;0.67;;
21697;SDS011;11010;49.548;11.926;2024-02-23T04:59:09;4.10;;;0.80;;
21697;SDS011;11010;49.548;11.926;2024-02-23T05:01:36;3.13;;;0.60;;
21697;SDS011;11010;49.548;11.926;2024-02-23T05:04:04;1.50;;;0.60;;
21697;SDS011;11010;49.548;11.926;2024-02-23T05:06:31;3.80;;;0.77;;
21697;SDS011;11010;49.548;11.926;2024-02-23T05:08:59;4.70;;;0.60;;
21697;SDS011;11010;49.548;11.926;2024-02-23T05:11:26;1.23;;;0.50;;
21697;SDS011;11010;49.548;11.926;2024-02-23T05:13:54;1.90;;;0.60;;
21697;SDS011;11010;49.548;11.926;2024-02-23T05:16:21;3.00;;;0.70;;
21697;SDS011;11010;49.548;11.926;2024-02-23T05:18:48;3.23;;;0.60;;
21697;SDS011;11010;49.548;11.926;2024-02-23T05:21:16;3.53;;;0.63;;
21697;SDS011;11010;49.548;11.926;2024-02-23T05:23:44;2.67;;;0.70;;
21697;SDS011;11010;49.548;11.926;2024-02-23T05:26:13;1.80;;;0.60;;
21697;SDS011;11010;49.548;11.926;2024-02-23T05:28:40;2.40;;;0.63;;
21697;SDS011;11010;49.548;11.926;2024-02-23T05:31:09;1.93;;;0.50;;
21697;SDS011;11010;49.548;11.926;2024-02-23T05:33:36;2.60;;;0.70;;
21697;SDS011;11010;49.548;11.926;2024-02-23T05:36:05;4.37;;;0.67;;
21697;SDS011;11010;49.548;11.926;2024-02-23T05:38:33;4.17;;;0.80;;
21697;SDS011;11010;49.548;11.926;2024-02-23T05:41:00;3.00;;;0.60;;
21697;SDS011;11010;49.548;11.926;2024-02-23T05:43:27;1.27;;;0.60;;
21697;SDS011;11010;49.548;11.926;2024-02-23T05:45:55;0.87;;;0.57;;
21697;SDS011;11010;49.548;11.926;2024-02-23T05:48:23;2.40;;;0.60;;
21697;SDS011;11010;49.548;11.926;2024-02-23T05:50:51;1.63;;;0.50;;
21697;SDS011;11010;49.548;11.926;2024-02-23T05:53:19;2.20;;;0.67;;
21697;SDS011;11010;49.548;11.926;2024-02-23T05:55:46;2.07;;;0.80;;
21697;SDS011;11010;49.548;11.926;2024-02-23T05:58:13;3.53;;;0.70;;
21697;SDS011;11010;49.548;11.926;2024-02-23T06:00:43;2.50;;;0.70;;
21697;SDS011;11010;49.548;11.926;2024-02-23T06:03:10;2.53;;;0.67;;
21697;SDS011;11010;49.548;11.926;2024-02-23T06:05:39;2.17;;;0.70;;
21697;SDS011;11010;49.548;11.926;2024-02-23T06:08:07;2.57;;;0.70;;
21697;SDS011;11010;49.548;11.926;2024-02-23T06:10:34;3.67;;;0.70;;
21697;SDS011;11010;49.548;11.926;2024-02-23T06:13:01;4.00;;;0.90;;
21697;SDS011;11010;49.548;11.926;2024-02-23T06:15:30;3.23;;;0.73;;
21697;SDS011;11010;49.548;11.926;2024-02-23T06:17:57;4.83;;;0.80;;
21697;SDS011;11010;49.548;11.926;2024-02-23T06:20:25;4.50;;;0.73;;
21697;SDS011;11010;49.548;11.926;2024-02-23T06:22:52;2.87;;;0.70;;
21697;SDS011;11010;49.548;11.926;2024-02-23T06:25:19;3.60;;;0.67;;
21697;SDS011;11010;49.548;11.926;2024-02-23T06:27:47;4.30;;;1.00;;
21697;SDS011;11010;49.548;11.926;2024-02-23T06:30:14;5.47;;;1.27;;
21697;SDS011;11010;49.548;11.926;2024-02-23T06:32:41;3.40;;;0.80;;
21697;SDS011;11010;49.548;11.926;2024-02-23T06:35:09;0.63;;;0.50;;
21697;SDS011;11010;49.548;11.926;2024-02-23T06:37:38;3.07;;;0.80;;
21697;SDS011;11010;49.548;11.926;2024-02-23T06:40:06;3.10;;;0.90;;
21697;SDS011;11010;49.548;11.926;2024-02-23T06:42:33;4.67;;;0.70;;
21697;SDS011;11010;49.548;11.926;2024-02-23T06:45:01;7.83;;;1.63;;
21697;SDS011;11010;49.548;11.926;2024-02-23T06:47:28;4.37;;;1.00;;
21697;SDS011;11010;49.548;11.926;2024-02-23T06:49:56;3.50;;;0.80;;
21697;SDS011;11010;49.548;11.926;2024-02-23T06:52:23;4.00;;;0.90;;
21697;SDS011;11010;49.548;11.926;2024-02-23T06:54:52;3.87;;;0.80;;
21697;SDS011;11010;49.548;11.926;2024-02-23T06:57:19;2.63;;;0.70;;
21697;SDS011;11010;49.548;11.926;2024-02-23T06:59:47;2.60;;;0.80;;
21697;SDS011;11010;49.548;11.926;2024-02-23T07:02:14;2.53;;;0.70;;
21697;SDS011;11010;49.548;11.926;2024-02-23T07:04:41;2.70;;;0.70;;
21697;SDS011;11010;49.548;11.926;2024-02-23T07:07:08;4.93;;;0.97;;
21697;SDS011;11010;49.548;11.926;2024-02-23T07:09:36;3.83;;;1.00;;
21697;SDS011;11010;49.548;11.926;2024-02-23T07:12:03;6.80;;;0.87;;
21697;SDS011;11010;49.548;11.926;2024-02-23T07:14:31;4.70;;;0.90;;
21697;SDS011;11010;49.548;11.926;2024-02-23T07:16:59;3.60;;;0.80;;
21697;SDS011;11010;49.548;11.926;2024-02-23T07:19:26;2.70;;;0.70;;
21697;SDS011;11010;49.548;11.926;2024-02-23T07:21:53;2.10;;;0.70;;
21697;SDS011;11010;49.548;11.926;2024-02-23T07:24:20;6.77;;;1.00;;
21697;SDS011;11010;49.548;11.926;2024-02-23T07:26:48;1.73;;;0.60;;
21697;SDS011;11010;49.548;11.926;2024-02-23T07:29:15;3.53;;;0.70;;
21697;SDS011;11010;49.548;11.926;2024-02-23T07:31:44;3.03;;;0.80;;
21697;SDS011;11010;49.548;11.926;2024-02-23T07:34:11;3.67;;;0.70;;
21697;SDS011;11010;49.548;11.926;2024-02-23T07:36:39;1.40;;;0.70;;
21697;SDS011;11010;49.548;11.926;2024-02-23T07:39:06;3.10;;;0.80;;
21697;SDS011;11010;49.548;11.926;2024-02-23T07:41:34;2.43;;;0.70;;
21697;SDS011;11010;49.548;11.926;2024-02-23T07:44:02;2.57;;;0.70;;
21697;SDS011;11010;49.548;11.926;2024-02-23T07:46:29;3.57;;;0.80;;
21697;SDS011;11010;49.548;11.926;2024-02-23T07:48:56;3.40;;;0.80;;
21697;SDS011;11010;49.548;11.926;2024-02-23T07:51:23;3.53;;;0.80;;
21697;SDS011;11010;49.548;11.926;2024-02-23T07:53:51;6.20;;;1.10;;
21697;SDS011;11010;49.548;11.926;2024-02-23T07:56:18;4.33;;;0.90;;
21697;SDS011;11010;49.548;11.926;2024-02-23T07:58:45;4.67;;;0.93;;
21697;SDS011;11010;49.548;11.926;2024-02-23T08:01:16;2.97;;;0.87;;
21697;SDS011;11010;49.548;11.926;2024-02-23T08:03:43;3.43;;;0.80;;
21697;SDS011;11010;49.548;11.926;2024-02-23T08:06:11;3.43;;;0.80;;
21697;SDS011;11010;49.548;11.926;2024-02-23T08:08:39;3.70;;;0.87;;
21697;SDS011;11010;49.548;11.926;2024-02-23T08:11:07;2.77;;;0.80;;
21697;SDS011;11010;49.548;11.926;2024-02-23T08:13:35;4.43;;;0.90;;
21697;SDS011;11010;49.548;11.926;2024-02-23T08:16:02;5.43;;;0.90;;
21697;SDS011;11010;49.548;11.926;2024-02-23T08:18:30;1.97;;;0.70;;
21697;SDS011;11010;49.548;11.926;2024-02-23T08:20:58;3.40;;;0.80;;
21697;SDS011;11010;49.548;11.926;2024-02-23T08:23:25;4.60;;;0.90;;
21697;SDS011;11010;49.548;11.926;2024-02-23T08:25:53;4.80;;;0.77;;
21697;SDS011;11010;49.548;11.926;2024-02-23T08:28:20;3.73;;;0.83;;
21697;SDS011;11010;49.548;11.926;2024-02-23T08:30:47;2.30;;;0.70;;
21697;SDS011;11010;49.548;11.926;2024-02-23T08:33:15;3.07;;;0.67;;
21697;SDS011;11010;49.548;11.926;2024-02-23T08:35:42;1.40;;;0.60;;
21697;SDS011;11010;49.548;11.926;2024-02-23T08:38:10;4.87;;;0.70;;
21697;SDS011;11010;49.548;11.926;2024-02-23T08:40:38;1.93;;;0.67;;
21697;SDS011;11010;49.548;11.926;2024-02-23T08:43:06;1.93;;;0.60;;
21697;SDS011;11010;49.548;11.926;2024-02-23T08:45:33;4.07;;;0.83;;
21697;SDS011;11010;49.548;11.926;2024-02-23T08:48:02;3.53;;;0.70;;
21697;SDS011;11010;49.548;11.926;2024-02-23T08:50:30;3.13;;;0.80;;
21697;SDS011;11010;49.548;11.926;2024-02-23T08:52:57;7.17;;;1.00;;
21697;SDS011;11010;49.548;11.926;2024-02-23T08:55:24;3.83;;;1.00;;
21697;SDS011;11010;49.548;11.926;2024-02-23T08:57:52;3.87;;;0.90;;
21697;SDS011;11010;49.548;11.926;2024-02-23T09:00:19;3.70;;;1.07;;
21697;SDS011;11010;49.548;11.926;2024-02-23T09:02:47;2.60;;;0.80;;
21697;SDS011;11010;49.548;11.926;2024-02-23T09:05:14;3.70;;;0.90;;
21697;SDS011;11010;49.548;11.926;2024-02-23T09:07:42;3.27;;;0.73;;
21697;SDS011;11010;49.548;11.926;2024-02-23T09:10:10;5.17;;;1.07;;
21697;SDS011;11010;49.548;11.926;2024-02-23T09:12:38;2.30;;;0.80;;
21697;SDS011;11010;49.548;11.926;2024-02-23T09:15:05;4.80;;;1.03;;
21697;SDS011;11010;49.548;11.926;2024-02-23T09:17:34;6.00;;;1.20;;
21697;SDS011;11010;49.548;11.926;2024-02-23T09:20:01;5.13;;;1.03;;
21697;SDS011;11010;49.548;11.926;2024-02-23T09:22:29;5.23;;;1.10;;
21697;SDS011;11010;49.548;11.926;2024-02-23T09:24:56;4.57;;;1.20;;
21697;SDS011;11010;49.548;11.926;2024-02-23T09:27:23;4.77;;;1.00;;
21697;SDS011;11010;49.548;11.926;2024-02-23T09:29:51;5.60;;;1.10;;
21697;SDS011;11010;49.548;11.926;2024-02-23T09:32:18;4.23;;;1.13;;
21697;SDS011;11010;49.548;11.926;2024-02-23T09:34:45;3.97;;;1.03;;
21697;SDS011;11010;49.548;11.926;2024-02-23T09:37:12;4.40;;;1.00;;
21697;SDS011;11010;49.548;11.926;2024-02-23T09:39:40;1.97;;;0.70;;
21697;SDS011;11010;49.548;11.926;2024-02-23T09:42:08;4.13;;;0.90;;
21697;SDS011;11010;49.548;11.926;2024-02-23T09:44:37;6.03;;;1.00;;
21697;SDS011;11010;49.548;11.926;2024-02-23T09:47:08;5.17;;;1.10;;
21697;SDS011;11010;49.548;11.926;2024-02-23T09:49:38;4.73;;;0.90;;
21697;SDS011;11010;49.548;11.926;2024-02-23T09:52:07;4.17;;;1.10;;
21697;SDS011;11010;49.548;11.926;2024-02-23T09:54:37;5.43;;;1.10;;
21697;SDS011;11010;49.548;11.926;2024-02-23T09:57:08;4.97;;;1.00;;
21697;SDS011;11010;49.548;11.926;2024-02-23T09:59:36;6.63;;;1.20;;
21697;SDS011;11010;49.548;11.926;2024-02-23T10:02:06;5.87;;;1.00;;
21697;SDS011;11010;49.548;11.926;2024-02-23T10:04:38;5.03;;;1.03;;
21697;SDS011;11010;49.548;11.926;2024-02-23T10:07:07;6.50;;;0.90;;
21697;SDS011;11010;49.548;11.926;2024-02-23T10:09:35;5.37;;;0.90;;
21697;SDS011;11010;49.548;11.926;2024-02-23T10:12:02;3.20;;;0.93;;
21697;SDS011;11010;49.548;11.926;2024-02-23T10:14:30;3.37;;;0.93;;
21697;SDS011;11010;49.548;11.926;2024-02-23T10:16:58;3.10;;;0.90;;
21697;SDS011;11010;49.548;11.926;2024-02-23T10:19:25;4.47;;;0.90;;
21697;SDS011;11010;49.548;11.926;2024-02-23T10:21:56;2.97;;;0.73;;
21697;SDS011;11010;49.548;11.926;2024-02-23T10:24:23;2.87;;;0.83;;
21697;SDS011;11010;49.548;11.926;2024-02-23T10:26:53;3.53;;;0.87;;
21697;SDS011;11010;49.548;11.926;2024-02-23T10:29:21;4.23;;;0.80;;
21697;SDS011;11010;49.548;11.926;2024-02-23T10:31:49;3.67;;;0.87;;
21697;SDS011;11010;49.548;11.926;2024-02-23T10:34:19;4.00;;;0.90;;
21697;SDS011;11010;49.548;11.926;2024-02-23T10:36:47;5.97;;;0.90;;
21697;SDS011;11010;49.548;11.926;2024-02-23T10:39:17;3.07;;;0.80;;
21697;SDS011;11010;49.548;11.926;2024-02-23T10:42:00;0.77;;;0.53;;
21697;SDS011;11010;49.548;11.926;2024-02-23T10:44:30;7.67;;;1.00;;
21697;SDS011;11010;49.548;11.926;2024-02-23T10:46:58;4.83;;;0.90;;
21697;SDS011;11010;49.548;11.926;2024-02-23T10:49:27;3.43;;;0.93;;
21697;SDS011;11010;49.548;11.926;2024-02-23T10:51:55;3.83;;;0.83;;
21697;SDS011;11010;49.548;11.926;2024-02-23T10:54:23;4.97;;;0.90;;
21697;SDS011;11010;49.548;11.926;2024-02-23T10:56:50;4.77;;;0.90;;
21697;SDS011;11010;49.548;11.926;2024-02-23T10:59:18;3.60;;;0.90;;
21697;SDS011;11010;49.548;11.926;2024-02-23T11:01:49;3.53;;;0.90;;
21697;SDS011;11010;49.548;11.926;2024-02-23T11:04:20;1.77;;;0.57;;
21697;SDS011;11010;49.548;11.926;2024-02-23T11:06:48;2.73;;;0.80;;
21697;SDS011;11010;49.548;11.926;2024-02-23T11:09:20;4.73;;;0.90;;
21697;SDS011;11010;49.548;11.926;2024-02-23T11:11:54;3.30;;;0.77;;
21697;SDS011;11010;49.548;11.926;2024-02-23T11:14:31;2.97;;;0.70;;
21697;SDS011;11010;49.548;11.926;2024-02-23T11:17:03;4.83;;;0.80;;
21697;SDS011;11010;49.548;11.926;2024-02-23T11:19:35;4.90;;;0.87;;
21697;SDS011;11010;49.548;11.926;2024-02-23T11:22:03;2.57;;;0.77;;
21697;SDS011;11010;49.548;11.926;2024-02-23T11:24:42;3.90;;;0.70;;
21697;SDS011;11010;49.548;11.926;2024-02-23T11:27:13;2.67;;;0.80;;
21697;SDS011;11010;49.548;11.926;2024-02-23T11:29:46;3.70;;;0.83;;
21697;SDS011;11010;49.548;11.926;2024-02-23T11:32:17;3.73;;;0.70;;
21697;SDS011;11010;49.548;11.926;2024-02-23T11:34:56;2.43;;;0.80;;
21697;SDS011;11010;49.548;11.926;2024-02-23T11:37:28;3.03;;;0.70;;
21697;SDS011;11010;49.548;11.926;2024-02-23T11:39:56;2.57;;;0.67;;
21697;SDS011;11010;49.548;11.926;2024-02-23T11:42:24;3.73;;;0.80;;
21697;SDS011;11010;49.548;11.926;2024-02-23T11:44:53;2.67;;;0.90;;
21697;SDS011;11010;49.548;11.926;2024-02-23T11:47:21;3.83;;;0.77;;
21697;SDS011;11010;49.548;11.926;2024-02-23T11:49:48;2.73;;;0.77;;
21697;SDS011;11010;49.548;11.926;2024-02-23T11:52:15;2.53;;;0.70;;
21697;SDS011;11010;49.548;11.926;2024-02-23T11:54:44;4.90;;;0.90;;
21697;SDS011;11010;49.548;11.926;2024-02-23T11:57:11;3.23;;;0.77;;
21697;SDS011;11010;49.548;11.926;2024-02-23T11:59:39;4.50;;;1.03;;
21697;SDS011;11010;49.548;11.926;2024-02-23T12:02:08;6.17;;;1.27;;
21697;SDS011;11010;49.548;11.926;2024-02-23T12:04:35;6.27;;;1.57;;
21697;SDS011;11010;49.548;11.926;2024-02-23T12:07:02;6.07;;;1.40;;
21697;SDS011;11010;49.548;11.926;2024-02-23T12:09:30;6.23;;;1.53;;
21697;SDS011;11010;49.548;11.926;2024-02-23T12:11:58;4.33;;;1.00;;
21697;SDS011;11010;49.548;11.926;2024-02-23T12:14:25;3.87;;;0.83;;
21697;SDS011;11010;49.548;11.926;2024-02-23T12:16:52;5.43;;;1.00;;
21697;SDS011;11010;49.548;11.926;2024-02-23T12:19:20;4.00;;;1.00;;
21697;SDS011;11010;49.548;11.926;2024-02-23T12:21:49;4.97;;;0.80;;
21697;SDS011;11010;49.548;11.926;2024-02-23T12:24:16;7.57;;;1.20;;
21697;SDS011;11010;49.548;11.926;2024-02-23T12:26:44;4.97;;;1.03;;
21697;SDS011;11010;49.548;11.926;2024-02-23T12:29:11;6.67;;;1.03;;
21697;SDS011;11010;49.548;11.926;2024-02-23T12:31:38;4.00;;;0.80;;
21697;SDS011;11010;49.548;11.926;2024-02-23T12:34:06;8.07;;;1.07;;
21697;SDS011;11010;49.548;11.926;2024-02-23T12:36:34;2.43;;;0.80;;
21697;SDS011;11010;49.548;11.926;2024-02-23T12:39:03;2.57;;;0.70;;
21697;SDS011;11010;49.548;11.926;2024-02-23T12:41:30;2.97;;;0.87;;
21697;SDS011;11010;49.548;11.926;2024-02-23T12:43:58;3.30;;;0.80;;
21697;SDS011;11010;49.548;11.926;2024-02-23T12:46:25;4.57;;;1.00;;
21697;SDS011;11010;49.548;11.926;2024-02-23T12:48:52;3.33;;;1.00;;
21697;SDS011;11010;49.548;11.926;2024-02-23T12:51:20;6.77;;;1.50;;
21697;SDS011;11010;49.548;11.926;2024-02-23T12:53:53;4.73;;;1.00;;
21697;SDS011;11010;49.548;11.926;2024-02-23T12:56:20;4.60;;;1.13;;
21697;SDS011;11010;49.548;11.926;2024-02-23T12:58:48;5.13;;;1.00;;
21697;SDS011;11010;49.548;11.926;2024-02-23T13:01:15;2.27;;;0.80;;
21697;SDS011;11010;49.548;11.926;2024-02-23T13:03:42;4.57;;;0.87;;
21697;SDS011;11010;49.548;11.926;2024-02-23T13:06:10;4.33;;;0.87;;
21697;SDS011;11010;49.548;11.926;2024-02-23T13:08:37;4.20;;;1.00;;
21697;SDS011;11010;49.548;11.926;2024-02-23T13:11:07;4.20;;;1.00;;
21697;SDS011;11010;49.548;11.926;2024-02-23T13:13:34;3.93;;;0.90;;
21697;SDS011;11010;49.548;11.926;2024-02-23T13:16:01;3.77;;;0.93;;
21697;SDS011;11010;49.548;11.926;2024-02-23T13:18:29;3.47;;;0.83;;
21697;SDS011;11010;49.548;11.926;2024-02-23T13:20:56;3.83;;;1.00;;
21697;SDS011;11010;49.548;11.926;2024-02-23T13:23:23;5.03;;;0.90;;
21697;SDS011;11010;49.548;11.926;2024-02-23T13:25:51;3.20;;;0.70;;
21697;SDS011;11010;49.548;11.926;2024-02-23T13:28:18;3.33;;;0.80;;
21697;SDS011;11010;49.548;11.926;2024-02-23T13:30:46;2.53;;;0.80;;
21697;SDS011;11010;49.548;11.926;2024-02-23T13:33:13;3.27;;;1.07;;
21697;SDS011;11010;49.548;11.926;2024-02-23T13:35:41;3.30;;;0.80;;
21697;SDS011;11010;49.548;11.926;2024-02-23T13:38:09;4.10;;;0.73;;
21697;SDS011;11010;49.548;11.926;2024-02-23T13:40:36;4.30;;;0.90;;
21697;SDS011;11010;49.548;11.926;2024-02-23T13:43:04;1.90;;;0.70;;
21697;SDS011;11010;49.548;11.926;2024-02-23T13:45:31;2.17;;;0.70;;
21697;SDS011;11010;49.548;11.926;2024-02-23T13:48:00;5.80;;;0.90;;
21697;SDS011;11010;49.548;11.926;2024-02-23T13:50:29;3.20;;;0.70;;
21697;SDS011;11010;49.548;11.926;2024-02-23T13:52:57;4.83;;;1.00;;
21697;SDS011;11010;49.548;11.926;2024-02-23T13:55:24;3.77;;;0.90;;
21697;SDS011;11010;49.548;11.926;2024-02-23T13:57:52;4.93;;;1.00;;
21697;SDS011;11010;49.548;11.926;2024-02-23T14:00:19;2.57;;;0.77;;
21697;SDS011;11010;49.548;11.926;2024-02-23T14:02:47;4.97;;;0.90;;
21697;SDS011;11010;49.548;11.926;2024-02-23T14:05:15;4.80;;;0.90;;
21697;SDS011;11010;49.548;11.926;2024-02-23T14:07:45;5.20;;;1.10;;
21697;SDS011;11010;49.548;11.926;2024-02-23T14:10:12;3.63;;;1.10;;
21697;SDS011;11010;49.548;11.926;2024-02-23T14:12:40;5.27;;;1.10;;
21697;SDS011;11010;49.548;11.926;2024-02-23T14:15:08;4.13;;;0.90;;
21697;SDS011;11010;49.548;11.926;2024-02-23T14:17:37;4.00;;;0.90;;
21697;SDS011;11010;49.548;11.926;2024-02-23T14:20:05;2.43;;;0.90;;
21697;SDS011;11010;49.548;11.926;2024-02-23T14:22:33;3.80;;;0.90;;
21697;SDS011;11010;49.548;11.926;2024-02-23T14:25:01;3.53;;;0.80;;
21697;SDS011;11010;49.548;11.926;2024-02-23T14:27:28;3.03;;;0.80;;
21697;SDS011;11010;49.548;11.926;2024-02-23T14:29:57;5.30;;;0.90;;
21697;SDS011;11010;49.548;11.926;2024-02-23T14:32:25;3.30;;;0.80;;
21697;SDS011;11010;49.548;11.926;2024-02-23T14:34:53;3.50;;;1.00;;
21697;SDS011;11010;49.548;11.926;2024-02-23T14:37:21;2.30;;;0.70;;